createdAt,value
2018-01-16T00:02:31.650Z,98349
2018-01-16T00:12:33.296Z,98333
2018-01-16T00:22:40.904Z,98307
2018-01-16T00:32:42.470Z,98291
2018-01-16T00:42:44.014Z,98288
2018-01-16T00:52:45.566Z,98284
2018-01-16T01:02:47.052Z,98295
2018-01-16T01:12:48.552Z,98288
2018-01-16T01:22:50.154Z,98307
2018-01-16T01:32:51.706Z,98307
2018-01-16T01:42:53.224Z,98321
2018-01-16T01:52:54.766Z,98323
2018-01-16T02:02:56.316Z,98338
2018-01-16T02:12:57.873Z,98327
2018-01-16T02:23:00.218Z,98326
2018-01-16T02:33:01.843Z,98321
2018-01-16T02:43:03.324Z,98303
2018-01-16T02:53:04.870Z,98306
2018-01-16T03:03:06.388Z,98292
2018-01-16T03:13:08.702Z,98274
2018-01-16T03:23:10.984Z,98264
2018-01-16T03:33:12.563Z,98266
2018-01-16T03:43:14.220Z,98246
2018-01-16T03:53:15.872Z,98256
2018-01-16T04:03:17.614Z,98237
2018-01-16T04:13:19.247Z,98215
2018-01-16T04:23:21.574Z,98182
2018-01-16T04:33:23.227Z,98174
2018-01-16T04:43:24.801Z,98158
2018-01-16T04:53:26.351Z,98152
2018-01-16T05:03:27.901Z,98129
2018-01-16T05:13:29.588Z,98103
2018-01-16T05:23:31.201Z,98101
2018-01-16T05:33:32.969Z,98099
2018-01-16T05:43:35.248Z,98080
2018-01-16T05:53:36.913Z,98081
2018-01-16T06:03:38.434Z,98091
2018-01-16T06:13:39.919Z,98097
2018-01-16T06:23:41.473Z,98141
2018-01-16T06:33:42.999Z,98123
2018-01-16T06:43:44.527Z,98103
2018-01-16T06:53:46.175Z,98086
2018-01-16T07:03:48.427Z,98067
2018-01-16T07:13:49.950Z,98107
2018-01-16T07:23:51.489Z,98108
2018-01-16T07:33:53.633Z,98129
2018-01-16T07:43:55.165Z,98138
2018-01-16T07:53:56.744Z,98137
2018-01-16T08:03:58.299Z,98135
2018-01-16T08:13:59.897Z,98100
2018-01-16T08:24:01.401Z,98109
2018-01-16T08:34:03.679Z,98119
2018-01-16T08:44:05.217Z,98149
2018-01-16T08:54:06.711Z,98161
2018-01-16T09:04:08.243Z,98171
2018-01-16T09:14:09.777Z,98153
2018-01-16T09:24:11.299Z,98137
2018-01-16T09:34:12.832Z,98136
2018-01-16T09:44:15.068Z,98137
2018-01-16T09:54:16.617Z,98142
2018-01-16T10:04:25.011Z,98142
2018-01-16T10:14:27.299Z,98113
2018-01-16T10:24:28.854Z,98092
2018-01-16T10:34:30.426Z,98095
2018-01-16T10:44:32.731Z,98073
2018-01-16T10:54:35.001Z,98083
2018-01-16T11:04:36.540Z,98088
2018-01-16T11:14:38.318Z,98073
2018-01-16T11:24:40.512Z,98078
2018-01-16T11:34:42.038Z,98074
2018-01-16T11:44:43.590Z,98092
2018-01-16T11:54:45.118Z,98098
2018-01-16T12:04:46.656Z,98090
2018-01-16T12:14:48.241Z,98114
2018-01-16T12:24:49.844Z,98088
2018-01-16T12:34:51.351Z,98131
2018-01-16T12:44:53.040Z,98125
2018-01-16T12:54:54.590Z,98115
2018-01-16T13:04:56.193Z,98113
2018-01-16T13:14:57.756Z,98117
2018-01-16T13:24:59.315Z,98148
2018-01-16T13:35:00.845Z,98161
2018-01-16T13:45:02.368Z,98163
2018-01-16T13:55:04.716Z,98175
2018-01-16T14:05:13.353Z,98176
2018-01-16T14:15:15.018Z,98204
2018-01-16T14:25:16.697Z,98222
2018-01-16T14:35:18.206Z,98223
2018-01-16T14:45:19.792Z,98230
2018-01-16T14:55:21.334Z,98231
2018-01-16T15:05:22.904Z,98204
2018-01-16T15:15:24.661Z,98228
2018-01-16T15:25:26.927Z,98239
2018-01-16T15:35:28.518Z,98236
2018-01-16T15:45:30.141Z,98258
2018-01-16T15:55:31.764Z,98292
2018-01-16T16:05:33.316Z,98298
2018-01-16T16:15:34.951Z,98269
2018-01-16T16:25:36.505Z,98262
2018-01-16T16:35:38.086Z,98283
2018-01-16T16:45:40.418Z,98251
2018-01-16T16:55:42.669Z,98248
2018-01-16T17:05:44.254Z,98255
2018-01-16T17:15:46.682Z,98257
2018-01-16T17:25:48.253Z,98219
2018-01-16T17:35:50.626Z,98237
2018-01-16T17:45:52.132Z,98253
2018-01-16T17:55:53.772Z,98236
2018-01-16T18:05:55.556Z,98259
2018-01-16T18:15:57.339Z,98280
2018-01-16T18:25:58.887Z,98249
2018-01-16T18:36:01.225Z,98255
2018-01-16T18:46:02.868Z,98246
2018-01-16T18:56:04.743Z,98251
2018-01-16T19:06:06.374Z,98263
2018-01-16T19:16:07.956Z,98259
2018-01-16T19:26:09.601Z,98259
2018-01-16T19:36:11.144Z,98262
2018-01-16T19:46:12.765Z,98266
2018-01-16T19:56:14.438Z,98290
2018-01-16T20:06:17.001Z,98284
2018-01-16T20:16:18.773Z,98272
2018-01-16T20:26:20.363Z,98264
2018-01-16T20:36:21.964Z,98294
2018-01-16T20:46:23.600Z,98291
2018-01-16T20:56:25.183Z,98291
2018-01-16T21:06:26.640Z,98287
2018-01-16T21:16:29.065Z,98291
2018-01-16T21:26:31.351Z,98299
2018-01-16T21:36:32.911Z,98293
2018-01-16T21:46:34.497Z,98286
2018-01-16T21:56:36.039Z,98284
2018-01-16T22:06:37.739Z,98281
2018-01-16T22:16:39.337Z,98259
2018-01-16T22:26:40.878Z,98265
2018-01-16T22:36:42.456Z,98248
2018-01-16T22:46:44.032Z,98249
2018-01-16T22:56:45.628Z,98221
2018-01-16T23:06:47.204Z,98203
2018-01-16T23:16:48.736Z,98198
2018-01-16T23:26:50.280Z,98197
2018-01-16T23:36:51.860Z,98198
2018-01-16T23:46:53.433Z,98184
2018-01-16T23:56:54.969Z,98163
